createdAt,value
2023-04-21T00:00:23.559Z,96383.94
2023-04-21T00:01:25.071Z,96393.06
2023-04-21T00:02:27.450Z,96388.47
2023-04-21T00:03:30.384Z,96395.41
2023-04-21T00:04:32.653Z,96383.94
2023-04-21T00:05:34.782Z,96385.16
2023-04-21T00:06:36.717Z,96383.66
2023-04-21T00:07:39.151Z,96384.22
2023-04-21T00:08:40.744Z,96389.59
2023-04-21T00:09:42.818Z,96386.63
2023-04-21T00:10:45.276Z,96380.56
2023-04-21T00:11:46.864Z,96386.84
2023-04-21T00:12:48.387Z,96382.25
2023-04-21T00:13:49.903Z,96386.91
2023-04-21T00:14:51.492Z,96383.88
2023-04-21T00:15:53.061Z,96383.94
2023-04-21T00:16:54.640Z,96382.81
2023-04-21T00:17:56.227Z,96377.03
2023-04-21T00:18:58.272Z,96382.25
2023-04-21T00:19:59.860Z,96382.09
2023-04-21T00:21:01.492Z,96376.72
2023-04-21T00:22:04.511Z,96379.84
2023-04-21T00:23:06.119Z,96382.88
2023-04-21T00:24:08.044Z,96382.97
2023-04-21T00:25:10.127Z,96378.28
2023-04-21T00:26:11.802Z,96374.31
2023-04-21T00:27:13.607Z,96381.13
2023-04-21T00:28:15.179Z,96379.56
2023-04-21T00:29:16.911Z,96372.28
2023-04-21T00:30:18.610Z,96378.06
2023-04-21T00:31:20.146Z,96385.34
2023-04-21T00:32:21.727Z,96376.72
2023-04-21T00:33:23.386Z,96382.38
2023-04-21T00:34:24.984Z,96382.38
2023-04-21T00:35:26.769Z,96373.47
2023-04-21T00:36:28.553Z,96383.78
2023-04-21T00:37:31.059Z,96384.84
2023-04-21T00:38:32.633Z,96382.25
2023-04-21T00:39:34.252Z,96382.94
2023-04-21T00:40:35.844Z,96381.38
2023-04-21T00:41:38.608Z,96382.53
2023-04-21T00:42:40.358Z,96382.94
2023-04-21T00:44:01.640Z,96382.94
2023-04-21T00:45:06.645Z,96379.47
2023-04-21T00:46:08.191Z,96388.88
2023-04-21T00:47:10.164Z,96378.97
2023-04-21T00:48:11.826Z,96389.38
2023-04-21T00:49:13.660Z,96389.81
2023-04-21T00:50:15.341Z,96387.13
2023-04-21T00:51:17.435Z,96388.97
2023-04-21T00:52:19.393Z,96381.88
2023-04-21T00:53:21.850Z,96380.59
2023-04-21T00:54:25.371Z,96386.94
2023-04-21T00:55:27.090Z,96381.84
2023-04-21T00:56:32.100Z,96386.34
2023-04-21T00:57:37.594Z,96392.66
2023-04-21T00:58:42.717Z,96392.41
2023-04-21T00:59:44.503Z,96390.09
2023-04-21T01:00:46.145Z,96384.34
2023-04-21T01:01:47.739Z,96386.38
2023-04-21T01:02:49.693Z,96387.22
2023-04-21T01:03:51.951Z,96388.09
2023-04-21T01:04:53.567Z,96385.91
2023-04-21T01:05:55.151Z,96386.69
2023-04-21T01:06:56.815Z,96385.13
2023-04-21T01:07:58.476Z,96387.22
2023-04-21T01:09:00.206Z,96389.72
2023-04-21T01:10:02.839Z,96386.09
2023-04-21T01:11:14.427Z,96384.03
2023-04-21T01:12:16.067Z,96383.84
2023-04-21T01:13:21.006Z,96388.28
2023-04-21T01:14:22.565Z,96384.81
2023-04-21T01:15:24.704Z,96379.44
2023-04-21T01:16:26.958Z,96386.97
2023-04-21T01:17:30.337Z,96382.97
2023-04-21T01:18:31.970Z,96383.06
2023-04-21T01:19:39.447Z,96390.88
2023-04-21T01:20:41.311Z,96383.06
2023-04-21T01:21:43.096Z,96385.31
2023-04-21T01:22:45.357Z,96383.75
2023-04-21T01:23:47.039Z,96382.97
2023-04-21T01:24:49.311Z,96386.69
2023-04-21T01:25:51.604Z,96382.44
2023-04-21T01:26:53.217Z,96382.53
2023-04-21T01:27:54.874Z,96381.56
2023-04-21T01:28:56.943Z,96382.84
2023-04-21T01:29:58.516Z,96381.16
2023-04-21T01:31:00.173Z,96387.72
2023-04-21T01:32:10.711Z,96378.16
2023-04-21T01:33:12.548Z,96376.81
2023-04-21T01:34:14.227Z,96381.41
2023-04-21T01:35:15.785Z,96377.72
2023-04-21T01:36:17.437Z,96376.06
2023-04-21T01:37:21.948Z,96373.88
2023-04-21T01:38:23.625Z,96378.78
2023-04-21T01:39:25.227Z,96375.13
2023-04-21T01:40:26.940Z,96379.63
2023-04-21T01:41:28.583Z,96381.63
2023-04-21T01:42:31.100Z,96378.97
2023-04-21T01:43:32.656Z,96376.19
2023-04-21T01:44:34.824Z,96382.75
2023-04-21T01:45:36.452Z,96381.75
2023-04-21T01:46:38.628Z,96383.75
2023-04-21T01:47:40.367Z,96380.97
2023-04-21T01:48:42.083Z,96384.50
2023-04-21T01:49:43.628Z,96392.53
2023-04-21T01:50:45.354Z,96389.41
2023-04-21T01:51:46.859Z,96384.94
2023-04-21T01:52:48.547Z,96390.47
2023-04-21T01:53:50.049Z,96387.28
2023-04-21T01:54:51.612Z,96388.19
2023-04-21T01:55:53.196Z,96384.13
2023-04-21T01:56:54.884Z,96381.03
2023-04-21T01:57:59.181Z,96387.28
2023-04-21T01:59:00.774Z,96385.72
2023-04-21T02:00:04.044Z,96386.38
2023-04-21T02:01:05.860Z,96381.94
2023-04-21T02:02:07.792Z,96384.84
2023-04-21T02:03:09.575Z,96386.19
2023-04-21T02:04:11.456Z,96383.44
2023-04-21T02:05:13.173Z,96388.03
2023-04-21T02:06:14.962Z,96385.38
2023-04-21T02:07:16.535Z,96379.63
2023-04-21T02:08:18.179Z,96380.75
2023-04-21T02:09:20.057Z,96382.97
2023-04-21T02:10:21.931Z,96382.97
2023-04-21T02:11:25.204Z,96383.41
2023-04-21T02:12:26.793Z,96382.75
2023-04-21T02:13:28.371Z,96382.53
2023-04-21T02:14:29.928Z,96373.84
2023-04-21T02:15:31.558Z,96379.19
2023-04-21T02:16:33.315Z,96374.06
2023-04-21T02:17:34.980Z,96374.72
2023-04-21T02:18:39.933Z,96384.09
2023-04-21T02:19:41.467Z,96375.84
2023-04-21T02:20:43.095Z,96377.97
2023-04-21T02:21:44.631Z,96380.72
2023-04-21T02:22:46.218Z,96377.91
2023-04-21T02:23:47.811Z,96375.97
2023-04-21T02:24:50.034Z,96379.13
2023-04-21T02:25:51.573Z,96379.91
2023-04-21T02:26:53.100Z,96371.41
2023-04-21T02:27:54.614Z,96375.44
2023-04-21T02:28:56.256Z,96377.78
2023-04-21T02:29:57.776Z,96379.16
2023-04-21T02:30:59.298Z,96372.88
2023-04-21T02:32:05.560Z,96378.34
2023-04-21T02:33:19.703Z,96369.22
2023-04-21T02:34:21.570Z,96373.97
2023-04-21T02:35:23.167Z,96373.09
2023-04-21T02:36:24.703Z,96378.94
2023-04-21T02:37:26.673Z,96381.63
2023-04-21T02:38:28.301Z,96376.50
2023-04-21T02:39:29.879Z,96378.41
2023-04-21T02:40:31.430Z,96381.06
2023-04-21T02:41:33.094Z,96382.88
2023-04-21T02:42:34.931Z,96378.28
2023-04-21T02:43:36.547Z,96382.63
2023-04-21T02:44:38.684Z,96386.97
2023-04-21T02:45:40.696Z,96384.97
2023-04-21T02:46:42.874Z,96390.09
2023-04-21T02:47:44.519Z,96383.44
2023-04-21T02:48:46.086Z,96386.09
2023-04-21T02:49:47.820Z,96381.19
2023-04-21T02:50:50.724Z,96393.13
2023-04-21T02:51:52.313Z,96388.31
2023-04-21T02:52:53.809Z,96390.09
2023-04-21T02:53:55.443Z,96391.88
2023-04-21T02:54:57.012Z,96382.94
2023-04-21T02:55:58.575Z,96387.84
2023-04-21T02:57:00.068Z,96388.84
2023-04-21T02:58:01.550Z,96391.28
2023-04-21T02:59:03.051Z,96386.03
2023-04-21T03:00:05.665Z,96383.81
2023-04-21T03:01:07.318Z,96389.16
2023-04-21T03:02:09.067Z,96391.59
2023-04-21T03:03:10.903Z,96390.03
2023-04-21T03:04:13.093Z,96388.47
2023-04-21T03:05:14.784Z,96384.00
2023-04-21T03:06:16.389Z,96394.03
2023-04-21T03:07:17.923Z,96386.66
2023-04-21T03:08:19.427Z,96393.94
2023-04-21T03:09:21.500Z,96389.34
2023-04-21T03:10:23.227Z,96390.91
2023-04-21T03:11:24.799Z,96397.06
2023-04-21T03:12:26.368Z,96391.78
2023-04-21T03:13:27.923Z,96392.69
2023-04-21T03:14:29.426Z,96397.47
2023-04-21T03:15:31.211Z,96393.03
2023-04-21T03:16:32.814Z,96389.66
2023-04-21T03:17:34.438Z,96389.41
2023-04-21T03:18:36.430Z,96400.22
2023-04-21T03:19:38.058Z,96391.94
2023-04-21T03:20:39.650Z,96403.56
2023-04-21T03:21:41.218Z,96394.81
2023-04-21T03:22:42.733Z,96397.59
2023-04-21T03:23:44.788Z,96396.94
2023-04-21T03:24:46.338Z,96405.38
2023-04-21T03:25:47.934Z,96405.50
2023-04-21T03:26:49.592Z,96396.22
2023-04-21T03:27:51.550Z,96396.56
2023-04-21T03:28:53.060Z,96398.38
2023-04-21T03:29:54.659Z,96402.00
2023-04-21T03:30:56.225Z,96401.88
2023-04-21T03:31:57.893Z,96408.72
2023-04-21T03:32:59.551Z,96404.13
2023-04-21T03:34:01.190Z,96404.25
2023-04-21T03:35:02.852Z,96399.03
2023-04-21T03:36:04.592Z,96403.81
2023-04-21T03:37:06.305Z,96405.06
2023-04-21T03:38:07.886Z,96407.41
2023-04-21T03:39:19.210Z,96407.41
2023-04-21T03:40:21.533Z,96402.84
2023-04-21T03:41:23.107Z,96405.19
2023-04-21T03:42:25.910Z,96411.00
2023-04-21T03:43:27.536Z,96407.97
2023-04-21T03:44:29.144Z,96414.09
2023-04-21T03:45:30.816Z,96404.63
2023-04-21T03:46:32.554Z,96410.06
2023-04-21T03:47:34.383Z,96410.06
2023-04-21T03:48:36.022Z,96420.78
2023-04-21T03:49:37.602Z,96417.78
2023-04-21T03:50:39.192Z,96418.56
2023-04-21T03:51:40.754Z,96411.63
2023-04-21T03:52:42.277Z,96413.19
2023-04-21T03:53:43.923Z,96414.66
2023-04-21T03:54:45.489Z,96420.44
2023-04-21T03:55:48.865Z,96420.09
2023-04-21T03:56:50.552Z,96413.63
2023-04-21T03:57:52.143Z,96412.41
2023-04-21T03:58:53.646Z,96413.19
2023-04-21T03:59:55.306Z,96424.69
2023-04-21T04:00:57.094Z,96420.56
2023-04-21T04:01:58.721Z,96423.28
2023-04-21T04:03:00.699Z,96421.38
2023-04-21T04:04:02.756Z,96420.78
2023-04-21T04:05:05.286Z,96419.00
2023-04-21T04:06:07.165Z,96417.53
2023-04-21T04:07:10.073Z,96422.63
2023-04-21T04:08:11.632Z,96429.31
2023-04-21T04:09:13.273Z,96424.41
2023-04-21T04:10:14.814Z,96430.41
2023-04-21T04:11:16.359Z,96434.66
2023-04-21T04:12:17.921Z,96434.19
2023-04-21T04:13:19.725Z,96433.22
2023-04-21T04:14:21.307Z,96436.25
2023-04-21T04:15:23.847Z,96430.47
2023-04-21T04:16:25.652Z,96444.53
2023-04-21T04:17:27.366Z,96440.94
2023-04-21T04:18:29.083Z,96443.84
2023-04-21T04:19:32.047Z,96441.38
2023-04-21T04:20:33.614Z,96444.97
2023-04-21T04:21:35.220Z,96447.41
2023-04-21T04:22:37.045Z,96449.50
2023-04-21T04:23:38.946Z,96455.97
2023-04-21T04:24:40.482Z,96447.81
2023-04-21T04:25:42.693Z,96452.16
2023-04-21T04:26:44.531Z,96453.88
2023-04-21T04:27:46.502Z,96456.63
2023-04-21T04:28:48.186Z,96455.16
2023-04-21T04:29:49.680Z,96452.25
2023-04-21T04:30:51.318Z,96459.88
2023-04-21T04:31:53.235Z,96453.16
2023-04-21T04:32:55.564Z,96452.69
2023-04-21T04:33:57.624Z,96451.75
2023-04-21T04:34:59.474Z,96451.09
2023-04-21T04:36:01.068Z,96455.78
2023-04-21T04:37:03.478Z,96455.53
2023-04-21T04:38:05.030Z,96453.06
2023-04-21T04:39:09.373Z,96457.06
2023-04-21T04:40:15.467Z,96457.69
2023-04-21T04:41:17.038Z,96456.75
2023-04-21T04:42:20.304Z,96456.63
2023-04-21T04:43:21.866Z,96463.81
2023-04-21T04:44:25.833Z,96463.31
2023-04-21T04:45:28.691Z,96473.97
2023-04-21T04:46:30.387Z,96471.88
2023-04-21T04:47:32.054Z,96473.28
2023-04-21T04:48:33.668Z,96474.69
2023-04-21T04:49:35.221Z,96471.91
2023-04-21T04:50:36.835Z,96471.41
2023-04-21T04:51:38.701Z,96478.50
2023-04-21T04:52:40.691Z,96474.91
2023-04-21T04:53:42.221Z,96473.53
2023-04-21T04:54:43.756Z,96471.34
2023-04-21T04:55:46.168Z,96470.75
2023-04-21T04:56:47.713Z,96470.97
2023-04-21T04:57:49.819Z,96472.66
2023-04-21T04:58:51.450Z,96472.91
2023-04-21T04:59:56.207Z,96470.00
2023-04-21T05:00:57.899Z,96469.47
2023-04-21T05:01:59.519Z,96464.53
2023-04-21T05:03:01.214Z,96466.19
2023-04-21T05:04:03.140Z,96465.19
2023-04-21T05:05:06.589Z,96463.91
2023-04-21T05:06:08.401Z,96462.47
2023-04-21T05:07:10.732Z,96464.19
2023-04-21T05:08:13.724Z,96460.06
2023-04-21T05:09:16.836Z,96468.56
2023-04-21T05:10:18.459Z,96466.28
2023-04-21T05:11:20.401Z,96461.63
2023-04-21T05:12:22.417Z,96465.59
2023-04-21T05:13:24.024Z,96459.56
2023-04-21T05:14:26.668Z,96460.94
2023-04-21T05:15:28.436Z,96462.59
2023-04-21T05:16:30.116Z,96454.81
2023-04-21T05:17:33.434Z,96453.69
2023-04-21T05:18:34.974Z,96463.72
2023-04-21T05:19:39.704Z,96467.44
2023-04-21T05:20:42.556Z,96463.44
2023-04-21T05:21:44.306Z,96465.88
2023-04-21T05:22:45.953Z,96462.00
2023-04-21T05:23:47.477Z,96462.56
2023-04-21T05:24:49.065Z,96462.94
2023-04-21T05:25:50.670Z,96459.22
2023-04-21T05:26:52.177Z,96460.56
2023-04-21T05:27:53.689Z,96465.88
2023-04-21T05:28:56.777Z,96462.59
2023-04-21T05:29:58.435Z,96467.81
2023-04-21T05:30:59.997Z,96461.41
2023-04-21T05:32:01.950Z,96462.78
2023-04-21T05:33:03.800Z,96475.34
2023-04-21T05:34:05.411Z,96464.03
2023-04-21T05:35:07.506Z,96469.06
2023-04-21T05:36:10.201Z,96465.34
2023-04-21T05:37:12.387Z,96464.63
2023-04-21T05:38:13.976Z,96471.75
2023-04-21T05:39:16.532Z,96467.88
2023-04-21T05:40:18.160Z,96466.88
2023-04-21T05:41:19.725Z,96465.81
2023-04-21T05:42:21.929Z,96471.22
2023-04-21T05:43:23.598Z,96465.94
2023-04-21T05:44:25.678Z,96465.94
2023-04-21T05:45:27.705Z,96464.78
2023-04-21T05:46:30.384Z,96466.75
2023-04-21T05:47:32.009Z,96460.09
2023-04-21T05:48:33.616Z,96463.50
2023-04-21T05:49:35.268Z,96455.72
2023-04-21T05:50:36.856Z,96455.78
2023-04-21T05:51:38.453Z,96455.03
2023-04-21T05:52:40.157Z,96455.97
2023-04-21T05:53:43.692Z,96456.84
2023-04-21T05:54:45.457Z,96460.13
2023-04-21T05:55:47.003Z,96457.00
2023-04-21T05:56:48.665Z,96458.19
2023-04-21T05:57:50.335Z,96457.91
2023-04-21T05:58:51.944Z,96451.88
2023-04-21T05:59:53.577Z,96455.41
2023-04-21T06:00:55.494Z,96455.09
2023-04-21T06:01:57.046Z,96455.31
2023-04-21T06:02:58.922Z,96443.84
2023-04-21T06:04:00.976Z,96449.00
2023-04-21T06:05:02.907Z,96452.94
2023-04-21T06:06:06.507Z,96445.91
2023-04-21T06:07:10.426Z,96451.34
2023-04-21T06:08:12.336Z,96446.47
2023-04-21T06:09:15.703Z,96448.47
2023-04-21T06:10:18.324Z,96446.56
2023-04-21T06:11:19.899Z,96450.56
2023-04-21T06:12:21.510Z,96446.94
2023-04-21T06:13:23.097Z,96442.00
2023-04-21T06:14:24.712Z,96447.16
2023-04-21T06:15:26.253Z,96442.72
2023-04-21T06:16:28.124Z,96441.09
2023-04-21T06:17:29.768Z,96435.16
2023-04-21T06:18:31.377Z,96441.09
2023-04-21T06:19:38.422Z,96439.31
2023-04-21T06:20:41.006Z,96441.34
2023-04-21T06:21:42.582Z,96441.72
2023-04-21T06:22:44.103Z,96442.78
2023-04-21T06:23:45.817Z,96445.34
2023-04-21T06:24:47.356Z,96441.50
2023-04-21T06:26:00.448Z,96445.25
2023-04-21T06:27:02.018Z,96441.59
2023-04-21T06:28:03.637Z,96447.38
2023-04-21T06:29:05.180Z,96442.00
2023-04-21T06:30:07.466Z,96443.69
2023-04-21T06:31:09.840Z,96442.25
2023-04-21T06:32:12.617Z,96438.81
2023-04-21T06:33:14.196Z,96445.59
2023-04-21T06:34:16.255Z,96439.78
2023-04-21T06:35:18.832Z,96449.44
2023-04-21T06:36:22.913Z,96441.88
2023-04-21T06:37:24.529Z,96440.66
2023-04-21T06:38:26.246Z,96444.09
2023-04-21T06:39:28.836Z,96443.88
2023-04-21T06:40:30.474Z,96437.19
2023-04-21T06:41:32.004Z,96441.56
2023-04-21T06:42:33.553Z,96445.59
2023-04-21T06:43:35.731Z,96446.63
2023-04-21T06:44:38.608Z,96448.31
2023-04-21T06:45:40.274Z,96446.59
2023-04-21T06:46:41.910Z,96439.63
2023-04-21T06:47:43.509Z,96446.44
2023-04-21T06:48:45.106Z,96439.41
2023-04-21T06:49:46.671Z,96441.56
2023-04-21T06:50:48.282Z,96448.41
2023-04-21T06:51:49.862Z,96441.47
2023-04-21T06:52:51.400Z,96436.75
2023-04-21T06:53:52.980Z,96434.38
2023-04-21T06:54:54.512Z,96436.97
2023-04-21T06:55:56.330Z,96442.59
2023-04-21T06:56:58.060Z,96442.38
2023-04-21T06:57:59.644Z,96440.69
2023-04-21T06:59:01.247Z,96437.81
2023-04-21T07:00:03.073Z,96441.41
2023-04-21T07:01:04.729Z,96440.34
2023-04-21T07:02:06.471Z,96443.75
2023-04-21T07:03:08.168Z,96445.50
2023-04-21T07:04:09.851Z,96439.47
2023-04-21T07:05:11.424Z,96438.03
2023-04-21T07:06:12.990Z,96431.19
2023-04-21T07:07:14.585Z,96437.41
2023-04-21T07:08:16.151Z,96445.06
2023-04-21T07:09:18.481Z,96438.59
2023-04-21T07:10:20.405Z,96441.34
2023-04-21T07:11:21.976Z,96437.41
2023-04-21T07:12:23.569Z,96445.06
2023-04-21T07:13:25.213Z,96441.88
2023-04-21T07:14:26.860Z,96438.13
2023-04-21T07:15:28.479Z,96439.72
2023-04-21T07:16:30.363Z,96444.00
2023-04-21T07:17:32.000Z,96439.06
2023-04-21T07:18:34.759Z,96440.28
2023-04-21T07:19:37.083Z,96442.25
2023-04-21T07:20:38.690Z,96428.34
2023-04-21T07:21:40.307Z,96434.94
2023-04-21T07:22:41.824Z,96434.91
2023-04-21T07:23:43.353Z,96431.03
2023-04-21T07:24:45.799Z,96428.38
2023-04-21T07:25:47.521Z,96431.03
2023-04-21T07:26:49.117Z,96424.47
2023-04-21T07:27:50.772Z,96426.03
2023-04-21T07:28:52.906Z,96425.25
2023-04-21T07:29:54.414Z,96429.09
2023-04-21T07:30:56.827Z,96425.97
2023-04-21T07:31:58.664Z,96428.25
2023-04-21T07:33:00.814Z,96425.88
2023-04-21T07:34:02.487Z,96422.00
2023-04-21T07:35:08.399Z,96424.28
2023-04-21T07:36:10.061Z,96418.81
2023-04-21T07:37:11.676Z,96414.88
2023-04-21T07:38:13.239Z,96417.16
2023-04-21T07:39:14.821Z,96420.25
2023-04-21T07:40:16.407Z,96413.19
2023-04-21T07:41:17.965Z,96412.34
2023-04-21T07:42:19.541Z,96413.97
2023-04-21T07:43:21.065Z,96415.94
2023-04-21T07:44:22.697Z,96417.50
2023-04-21T07:45:25.437Z,96420.97
2023-04-21T07:46:30.458Z,96414.28
2023-04-21T07:47:33.038Z,96410.81
2023-04-21T07:48:34.645Z,96405.31
2023-04-21T07:49:36.326Z,96409.09
2023-04-21T07:50:37.872Z,96413.31
2023-04-21T07:51:40.248Z,96412.13
2023-04-21T07:52:41.782Z,96407.09
2023-04-21T07:53:43.822Z,96410.81
2023-04-21T07:54:45.495Z,96409.50
2023-04-21T07:55:47.158Z,96408.03
2023-04-21T07:56:48.721Z,96413.03
2023-04-21T07:57:50.550Z,96418.31
2023-04-21T07:58:52.112Z,96408.06
2023-04-21T07:59:53.681Z,96409.13
2023-04-21T08:00:55.345Z,96410.78
2023-04-21T08:01:56.976Z,96400.03
2023-04-21T08:02:58.694Z,96398.84
2023-04-21T08:04:00.582Z,96403.16
2023-04-21T08:05:02.409Z,96409.69
2023-04-21T08:06:04.873Z,96405.34
2023-04-21T08:07:06.706Z,96402.22
2023-04-21T08:08:08.484Z,96403.34
2023-04-21T08:09:10.044Z,96394.47
2023-04-21T08:10:11.690Z,96394.69
2023-04-21T08:11:13.207Z,96398.66
2023-04-21T08:12:15.080Z,96401.78
2023-04-21T08:13:16.720Z,96396.78
2023-04-21T08:14:18.635Z,96389.09
2023-04-21T08:15:20.533Z,96393.38
2023-04-21T08:16:22.271Z,96389.50
2023-04-21T08:17:24.071Z,96384.84
2023-04-21T08:18:25.772Z,96381.81
2023-04-21T08:19:27.429Z,96387.59
2023-04-21T08:20:29.105Z,96388.75
2023-04-21T08:21:32.033Z,96390.28
2023-04-21T08:22:33.755Z,96381.72
2023-04-21T08:23:35.469Z,96384.00
2023-04-21T08:24:37.079Z,96382.03
2023-04-21T08:25:38.761Z,96384.78
2023-04-21T08:26:40.346Z,96375.50
2023-04-21T08:27:42.007Z,96374.38
2023-04-21T08:28:43.524Z,96371.66
2023-04-21T08:29:45.115Z,96374.75
2023-04-21T08:30:46.724Z,96370.09
2023-04-21T08:31:48.295Z,96373.63
2023-04-21T08:32:49.901Z,96370.84
2023-04-21T08:34:01.075Z,96376.22
2023-04-21T08:35:04.316Z,96371.56
2023-04-21T08:36:12.488Z,96374.69
2023-04-21T08:37:16.880Z,96374.22
2023-04-21T08:38:18.627Z,96365.25
2023-04-21T08:39:20.353Z,96364.44
2023-04-21T08:40:25.461Z,96359.75
2023-04-21T08:41:27.283Z,96357.44
2023-04-21T08:42:30.119Z,96369.09
2023-04-21T08:43:31.808Z,96359.03
2023-04-21T08:44:33.361Z,96365.22
2023-04-21T08:45:35.816Z,96359.00
2023-04-21T08:46:37.606Z,96365.94
2023-04-21T08:47:41.104Z,96367.16
2023-04-21T08:48:42.646Z,96365.31
2023-04-21T08:49:47.209Z,96361.50
2023-04-21T08:50:50.044Z,96364.97
2023-04-21T08:51:51.646Z,96362.25
2023-04-21T08:52:54.744Z,96363.44
2023-04-21T08:53:56.773Z,96356.06
2023-04-21T08:54:59.206Z,96354.50
2023-04-21T08:56:10.945Z,96360.28
2023-04-21T08:57:15.739Z,96355.97
2023-04-21T08:58:17.911Z,96347.47
2023-04-21T08:59:19.740Z,96350.13
2023-04-21T09:00:22.016Z,96345.06
2023-04-21T09:01:23.668Z,96340.53
2023-04-21T09:02:25.545Z,96346.72
2023-04-21T09:03:28.460Z,96340.50
2023-04-21T09:04:31.177Z,96342.09
2023-04-21T09:05:34.967Z,96340.91
2023-04-21T09:06:46.210Z,96348.28
2023-04-21T09:07:47.993Z,96335.94
2023-04-21T09:08:56.202Z,96330.50
2023-04-21T09:09:58.607Z,96325.91
2023-04-21T09:11:01.598Z,96334.06
2023-04-21T09:12:03.530Z,96333.66
2023-04-21T09:13:08.973Z,96328.59
2023-04-21T09:14:11.461Z,96328.22
2023-04-21T09:15:13.051Z,96332.06
2023-04-21T09:16:22.815Z,96330.50
2023-04-21T09:17:36.805Z,96327.41
2023-04-21T09:18:40.378Z,96321.13
2023-04-21T09:19:42.231Z,96330.38
2023-04-21T09:20:45.371Z,96326.41
2023-04-21T09:21:46.899Z,96321.66
2023-04-21T09:22:51.212Z,96316.94
2023-04-21T09:23:53.662Z,96320.00
2023-04-21T09:25:00.336Z,96319.16
2023-04-21T09:26:03.629Z,96327.09
2023-04-21T09:27:05.247Z,96325.97
2023-04-21T09:28:11.145Z,96317.34
2023-04-21T09:29:12.693Z,96321.63
2023-04-21T09:30:19.464Z,96313.78
2023-04-21T09:31:29.002Z,96315.41
2023-04-21T09:32:36.782Z,96314.69
2023-04-21T09:33:49.571Z,96313.97
2023-04-21T09:35:01.437Z,96314.78
2023-04-21T09:36:03.441Z,96307.09
2023-04-21T09:37:05.282Z,96309.03
2023-04-21T09:38:12.412Z,96311.69
2023-04-21T09:39:34.405Z,96300.41
2023-04-21T09:40:36.048Z,96298.44
2023-04-21T09:41:37.573Z,96302.34
2023-04-21T09:42:40.234Z,96296.97
2023-04-21T09:43:42.958Z,96302.78
2023-04-21T09:44:53.190Z,96301.59
2023-04-21T09:46:00.558Z,96302.25
2023-04-21T09:47:03.771Z,96302.25
2023-04-21T09:48:09.585Z,96295.22
2023-04-21T09:49:13.840Z,96290.72
2023-04-21T09:50:16.385Z,96293.88
2023-04-21T09:52:24.296Z,96302.28
2023-04-21T09:53:28.521Z,96293.69
2023-04-21T09:54:34.517Z,96294.81
2023-04-21T09:55:36.814Z,96294.25
2023-04-21T09:56:41.094Z,96291.22
2023-04-21T09:57:45.056Z,96286.53
2023-04-21T09:58:48.822Z,96291.22
2023-04-21T10:00:05.395Z,96292.72
2023-04-21T10:01:08.898Z,96292.75
2023-04-21T10:02:13.065Z,96291.22
2023-04-21T10:03:18.289Z,96281.22
2023-04-21T10:04:21.370Z,96281.97
2023-04-21T10:05:23.590Z,96275.66
2023-04-21T10:06:25.236Z,96280.28
2023-04-21T10:07:26.963Z,96280.22
2023-04-21T10:08:29.178Z,96282.53
2023-04-21T10:09:40.352Z,96284.06
2023-04-21T10:10:42.010Z,96279.44
2023-04-21T10:11:44.078Z,96277.94
2023-04-21T10:12:45.998Z,96275.22
2023-04-21T10:13:47.878Z,96271.34
2023-04-21T10:14:56.432Z,96262.75
2023-04-21T10:16:07.741Z,96275.66
2023-04-21T10:17:10.699Z,96271.00
2023-04-21T10:18:16.564Z,96271.72
2023-04-21T10:19:26.258Z,96272.41
2023-04-21T10:20:29.474Z,96266.13
2023-04-21T10:21:36.629Z,96266.16
2023-04-21T10:22:39.706Z,96275.81
2023-04-21T10:23:46.497Z,96262.19
2023-04-21T10:24:48.294Z,96262.53
2023-04-21T10:25:49.892Z,96262.84
2023-04-21T10:26:54.550Z,96264.41
2023-04-21T10:27:56.712Z,96262.97
2023-04-21T10:29:00.200Z,96255.16
2023-04-21T10:30:18.106Z,96254.41
2023-04-21T10:31:22.929Z,96259.06
2023-04-21T10:32:41.411Z,96255.09
2023-04-21T10:33:43.069Z,96253.41
2023-04-21T10:34:45.706Z,96262.28
2023-04-21T10:36:01.432Z,96258.69
2023-04-21T10:37:06.230Z,96247.41
2023-04-21T10:38:08.160Z,96253.19
2023-04-21T10:39:13.018Z,96246.88
2023-04-21T10:40:46.862Z,96251.50
2023-04-21T10:41:48.364Z,96255.31
2023-04-21T10:42:49.972Z,96251.31
2023-04-21T10:43:51.588Z,96249.03
2023-04-21T10:44:57.236Z,96248.97
2023-04-21T10:45:58.808Z,96244.50
2023-04-21T10:47:00.476Z,96247.25
2023-04-21T10:48:03.956Z,96251.59
2023-04-21T10:49:09.587Z,96248.06
2023-04-21T10:50:16.430Z,96241.00
2023-04-21T10:51:19.023Z,96244.50
2023-04-21T10:52:21.470Z,96240.88
2023-04-21T10:53:25.502Z,96241.22
2023-04-21T10:54:31.553Z,96234.19
2023-04-21T10:55:33.126Z,96227.19
2023-04-21T10:56:35.567Z,96237.00
2023-04-21T10:57:42.510Z,96230.44
2023-04-21T10:58:44.398Z,96231.28
2023-04-21T10:59:48.123Z,96230.44
2023-04-21T11:00:55.105Z,96227.50
2023-04-21T11:01:57.288Z,96224.72
2023-04-21T11:03:04.434Z,96221.03
2023-04-21T11:04:06.382Z,96218.94
2023-04-21T11:05:09.435Z,96221.50
2023-04-21T11:06:20.936Z,96218.69
2023-04-21T11:07:23.524Z,96209.59
2023-04-21T11:08:25.199Z,96216.53
2023-04-21T11:09:26.795Z,96209.66
2023-04-21T11:10:28.512Z,96207.63
2023-04-21T11:11:30.162Z,96204.59
2023-04-21T11:12:38.280Z,96215.94
2023-04-21T11:13:41.475Z,96206.78
2023-04-21T11:14:48.331Z,96207.31
2023-04-21T11:16:08.507Z,96210.50
2023-04-21T11:17:14.467Z,96213.91
2023-04-21T11:18:16.208Z,96212.69
2023-04-21T11:19:17.892Z,96207.09
2023-04-21T11:20:19.514Z,96207.81
2023-04-21T11:21:24.872Z,96210.34
2023-04-21T11:22:27.063Z,96213.09
2023-04-21T11:23:28.729Z,96208.59
2023-04-21T11:24:34.197Z,96208.22
2023-04-21T11:25:36.491Z,96216.84
2023-04-21T11:26:42.758Z,96211.38
2023-04-21T11:27:53.671Z,96212.22
2023-04-21T11:28:55.357Z,96214.56
2023-04-21T11:29:57.507Z,96214.50
2023-04-21T11:30:59.253Z,96209.78
2023-04-21T11:32:02.082Z,96211.41
2023-04-21T11:33:03.790Z,96212.66
2023-04-21T11:34:07.257Z,96215.91
2023-04-21T11:35:09.246Z,96210.13
2023-04-21T11:36:10.944Z,96215.56
2023-04-21T11:37:20.740Z,96212.53
2023-04-21T11:38:24.564Z,96219.25
2023-04-21T11:39:26.124Z,96213.81
2023-04-21T11:40:27.665Z,96211.19
2023-04-21T11:41:29.253Z,96221.28
2023-04-21T11:42:31.271Z,96219.84
2023-04-21T11:43:32.935Z,96223.75
2023-04-21T11:44:43.313Z,96217.59
2023-04-21T11:45:49.435Z,96228.84
2023-04-21T11:46:51.182Z,96209.78
2023-04-21T11:48:13.565Z,96219.88
2023-04-21T11:49:17.348Z,96219.88
2023-04-21T11:50:35.697Z,96220.69
2023-04-21T11:51:39.786Z,96213.66
2023-04-21T11:52:43.474Z,96217.88
2023-04-21T11:53:48.263Z,96217.56
2023-04-21T11:54:59.668Z,96212.50
2023-04-21T11:56:02.034Z,96215.25
2023-04-21T11:57:03.811Z,96212.53
2023-04-21T11:58:05.926Z,96213.69
2023-04-21T11:59:12.017Z,96215.94
2023-04-21T12:00:14.520Z,96211.91
2023-04-21T12:01:16.895Z,96209.53
2023-04-21T12:02:26.951Z,96206.00
2023-04-21T12:03:28.753Z,96207.09
2023-04-21T12:04:32.189Z,96200.50
2023-04-21T12:05:36.946Z,96207.09
2023-04-21T12:06:38.675Z,96198.47
2023-04-21T12:07:46.305Z,96194.97
2023-04-21T12:08:48.013Z,96198.00
2023-04-21T12:09:53.493Z,96199.13
2023-04-21T12:10:55.239Z,96202.13
2023-04-21T12:11:58.916Z,96198.97
2023-04-21T12:13:00.886Z,96193.63
2023-04-21T12:14:02.451Z,96186.59
2023-04-21T12:15:04.525Z,96186.19
2023-04-21T12:16:06.474Z,96184.31
2023-04-21T12:17:08.046Z,96192.16
2023-04-21T12:18:13.836Z,96180.53
2023-04-21T12:19:26.599Z,96181.28